Abbott
UTM 11U Easting = 46 4305, Northing = 56 77958     Elevation = 2130 m
Note to Users: This site contains raw data and is presented "as is" and in real time. Although reasonable care is exercised in providing this information, inaccuracies or omissions may occur due to the properties of weather and data collection systems. The Avalanche Control Section, responsible for its collection, disclaims all responsibility for the accuracy of the information.
Date Max Temp (deg C) Min Temp (deg C) Rel Hum (%) 1 Hr Precip (mm) HS (cm) Wind Dir (1 Hr Avg) Wind Spd (kph) (1 Hr Avg) Max Wind Speed (kph)
2024-02-27 05:00 -14 -15 84 0.9 202 W 6 15
2024-02-27 06:00 -15 -16 82 1.3 202 W 6 23
2024-02-27 07:00 -16 -16 82 2.9 201 W 6 15
2024-02-27 08:00 -16 -17 81 2.2 200 SW 6 17
2024-02-27 09:00 -13 -17 82 0.0 197 SE 4 11
2024-02-27 10:00 -11 -13 87 0.0 196 E 2 6
2024-02-27 11:00 -11 -12 87 0.0 195 SE 2 6
2024-02-27 12:00 -9 -13 89 0.0 196 NW 3 12
2024-02-27 13:00 -8 -13 88 0.0 194 SW 2 14
2024-02-27 14:00 -10 -13 87 0.0 193 SE 3 15
2024-02-27 15:00 -11 -15 84 0.0 196 SE 5 17
2024-02-27 16:00 -15 -16 82 0.0 198 S 5 16
2024-02-27 17:00 -15 -16 82 0.0 197 SW 3 11
2024-02-27 18:00 -16 -17 81 1.4 197 W 5 13
2024-02-27 19:00 -16 -16 81 0.0 196 S 3 8
2024-02-27 20:00 -16 -16 82 0.0 196 S 6 9
2024-02-27 21:00 -15 -16 82 0.0 196 S 6 11
2024-02-27 22:00 -15 -16 82 1.2 196 S 2 10
2024-02-27 23:00 -15 -15 83 0.9 195 S 4 12
2024-02-28 00:00 -14 -15 83 2.1 196 S 5 13
2024-02-28 01:00 -14 -14 84 0.0 195 S 3 8
2024-02-28 02:00 -13 -14 85 2.9 187 NW 3 9
2024-02-28 03:00 -13 -13 85 0.5 194 NW 3 7